createdAt,value
2024-04-24T00:00:30.297Z,100476.56
2024-04-24T00:02:57.134Z,100515.34
2024-04-24T00:05:24.034Z,100504.00
2024-04-24T00:07:50.931Z,100504.66
2024-04-24T00:10:17.553Z,100507.19
2024-04-24T00:12:44.190Z,100492.06
2024-04-24T00:15:10.790Z,100505.38
2024-04-24T00:17:37.516Z,100478.97
2024-04-24T00:20:04.491Z,100481.38
2024-04-24T00:22:33.936Z,100460.47
2024-04-24T00:25:00.739Z,100476.31
2024-04-24T00:27:28.188Z,100458.75
2024-04-24T00:29:54.785Z,100476.16
2024-04-24T00:32:21.507Z,100483.09
2024-04-24T00:34:48.070Z,100478.22
2024-04-24T00:37:14.674Z,100454.97
2024-04-24T00:39:41.311Z,100445.91
2024-04-24T00:42:17.499Z,100469.03
2024-04-24T00:44:44.108Z,100460.13
2024-04-24T00:47:10.887Z,100445.19
2024-04-24T00:49:37.686Z,100434.06
2024-04-24T00:52:04.410Z,100414.53
2024-04-24T00:54:31.099Z,100456.53
2024-04-24T00:56:58.243Z,100411.59
2024-04-24T00:59:24.996Z,100442.97
2024-04-24T01:01:51.674Z,100441.00
2024-04-24T01:04:18.438Z,100425.66
2024-04-24T01:06:47.654Z,100420.63
2024-04-24T01:09:15.963Z,100421.16
2024-04-24T01:11:42.628Z,100420.69
2024-04-24T01:14:09.682Z,100407.84
2024-04-24T01:16:42.068Z,100392.06
2024-04-24T01:19:40.341Z,100397.41
2024-04-24T01:22:23.938Z,100382.25
2024-04-24T01:25:03.968Z,100385.66
2024-04-24T01:27:30.751Z,100387.63
2024-04-24T01:29:57.477Z,100372.22
2024-04-24T01:32:24.081Z,100396.44
2024-04-24T01:34:50.883Z,100359.09
2024-04-24T01:37:17.605Z,100365.09
2024-04-24T01:39:44.139Z,100393.34
2024-04-24T01:42:10.734Z,100374.50
2024-04-24T01:44:37.398Z,100358.66
2024-04-24T01:47:04.022Z,100393.59
2024-04-24T01:49:30.657Z,100378.88
2024-04-24T01:51:57.276Z,100374.44
2024-04-24T01:54:23.808Z,100377.69
2024-04-24T01:56:50.439Z,100341.38
2024-04-24T01:59:17.108Z,100380.19
2024-04-24T02:01:43.906Z,100348.91
2024-04-24T02:04:10.511Z,100365.25
2024-04-24T02:06:37.310Z,100353.44
2024-04-24T02:09:03.904Z,100363.72
2024-04-24T02:11:32.876Z,100357.38
2024-04-24T02:14:01.199Z,100341.06
2024-04-24T02:16:28.247Z,100332.97
2024-04-24T02:18:54.912Z,100325.31
2024-04-24T02:21:21.503Z,100351.84
2024-04-24T02:23:48.270Z,100315.84
2024-04-24T02:26:14.928Z,100350.16
2024-04-24T02:28:41.534Z,100324.41
2024-04-24T02:46:49.038Z,100324.72
2024-04-24T02:49:15.645Z,100319.47
2024-04-24T02:51:42.259Z,100294.47
2024-04-24T02:54:08.868Z,100315.59
2024-04-24T02:56:35.373Z,100316.06
2024-04-24T02:59:04.907Z,100289.97
2024-04-24T03:01:31.475Z,100296.56
2024-04-24T03:03:58.202Z,100312.28
2024-04-24T03:06:24.823Z,100307.25
2024-04-24T03:08:51.446Z,100289.03
2024-04-24T03:11:18.300Z,100301.16
2024-04-24T03:13:44.948Z,100287.75
2024-04-24T03:16:11.570Z,100286.84
2024-04-24T03:18:38.217Z,100301.94
2024-04-24T03:21:05.345Z,100261.38
2024-04-24T03:23:31.937Z,100291.16
2024-04-24T03:25:58.620Z,100265.84
2024-04-24T03:28:25.186Z,100300.97
2024-04-24T03:30:51.788Z,100288.50
2024-04-24T03:33:18.525Z,100263.44
2024-04-24T03:35:45.187Z,100285.16
2024-04-24T03:38:11.774Z,100286.22
2024-04-24T03:40:38.744Z,100295.06
2024-04-24T03:43:05.323Z,100274.53
2024-04-24T03:45:31.939Z,100268.31
2024-04-24T03:47:58.593Z,100273.50
2024-04-24T03:50:25.232Z,100286.09
2024-04-24T03:52:51.892Z,100259.84
2024-04-24T03:55:18.432Z,100278.47
2024-04-24T03:57:45.039Z,100267.56
2024-04-24T04:00:12.238Z,100276.81
2024-04-24T04:02:39.025Z,100261.22
2024-04-24T04:05:05.805Z,100273.91
2024-04-24T04:07:32.431Z,100273.97
2024-04-24T04:09:59.028Z,100259.84
2024-04-24T04:12:25.678Z,100255.53
2024-04-24T04:14:52.202Z,100260.19
2024-04-24T04:17:18.922Z,100264.41
2024-04-24T04:19:45.553Z,100262.34
2024-04-24T04:22:24.194Z,100246.25
2024-04-24T04:24:50.793Z,100244.19
2024-04-24T04:27:18.307Z,100244.00
2024-04-24T04:29:44.881Z,100237.03
2024-04-24T04:32:11.561Z,100240.34
2024-04-24T04:34:38.112Z,100260.91
2024-04-24T04:37:04.707Z,100254.69
2024-04-24T04:39:31.313Z,100241.66
2024-04-24T04:42:01.332Z,100251.81
2024-04-24T04:44:28.334Z,100252.81
2024-04-24T04:46:55.149Z,100244.69
2024-04-24T04:49:21.885Z,100220.50
2024-04-24T04:51:48.522Z,100247.09
2024-04-24T04:54:15.149Z,100236.91
2024-04-24T04:56:41.750Z,100220.19
2024-04-24T04:59:09.037Z,100242.13
2024-04-24T05:01:35.840Z,100236.75
2024-04-24T05:04:02.511Z,100243.06
2024-04-24T05:06:29.186Z,100236.25
2024-04-24T05:08:55.730Z,100242.81
2024-04-24T05:11:22.449Z,100235.94
2024-04-24T05:13:58.209Z,100241.97
2024-04-24T05:16:24.928Z,100223.53
2024-04-24T05:18:53.992Z,100228.44
2024-04-24T05:21:20.652Z,100212.25
2024-04-24T05:23:47.726Z,100204.72
2024-04-24T05:26:33.181Z,100211.25
2024-04-24T05:29:05.994Z,100202.72
2024-04-24T05:31:32.655Z,100210.78
2024-04-24T05:33:59.243Z,100206.63
2024-04-24T05:36:32.007Z,100200.75
2024-04-24T05:38:58.846Z,100210.53
2024-04-24T05:41:25.654Z,100164.09
2024-04-24T05:43:54.148Z,100167.22
2024-04-24T05:46:20.906Z,100176.81
2024-04-24T05:51:45.271Z,100174.81
2024-04-24T05:54:12.120Z,100191.13
2024-04-24T05:56:38.795Z,100169.31
2024-04-24T05:59:05.376Z,100188.97
2024-04-24T06:01:32.042Z,100162.00
2024-04-24T06:03:59.051Z,100159.22
2024-04-24T06:06:28.772Z,100163.13
2024-04-24T06:08:55.428Z,100149.38
2024-04-24T06:11:22.126Z,100174.31
2024-04-24T06:13:49.036Z,100168.84
2024-04-24T06:16:18.072Z,100165.41
2024-04-24T06:19:06.579Z,100121.06
2024-04-24T06:21:33.615Z,100139.63
2024-04-24T06:24:00.418Z,100136.41
2024-04-24T06:26:27.196Z,100138.47
2024-04-24T06:28:54.033Z,100164.59
2024-04-24T06:31:30.204Z,100152.38
2024-04-24T06:33:56.861Z,100131.91
2024-04-24T06:36:23.406Z,100158.06
2024-04-24T06:38:50.076Z,100133.94
2024-04-24T06:41:17.111Z,100151.22
2024-04-24T06:43:44.297Z,100132.59
2024-04-24T06:46:11.080Z,100121.53
2024-04-24T06:48:37.897Z,100164.06
2024-04-24T06:51:05.513Z,100150.38
2024-04-24T06:53:32.317Z,100136.19
2024-04-24T06:56:03.958Z,100132.09
2024-04-24T06:58:33.163Z,100133.13
2024-04-24T07:00:59.991Z,100128.19
2024-04-24T07:03:27.922Z,100130.78
2024-04-24T07:05:55.199Z,100125.91
2024-04-24T07:08:22.012Z,100122.06
2024-04-24T07:10:49.062Z,100130.81
2024-04-24T07:13:15.756Z,100138.06
2024-04-24T07:15:42.575Z,100127.06
2024-04-24T07:18:09.324Z,100117.81
2024-04-24T07:20:36.087Z,100149.13
2024-04-24T07:23:03.260Z,100110.22
2024-04-24T07:25:29.952Z,100127.94
2024-04-24T07:27:56.476Z,100147.13
2024-04-24T07:30:24.028Z,100107.13
2024-04-24T07:32:50.824Z,100129.72
2024-04-24T07:35:17.402Z,100141.69
2024-04-24T07:37:44.148Z,100124.72
2024-04-24T07:40:11.554Z,100134.41
2024-04-24T07:42:38.250Z,100117.38
2024-04-24T07:45:04.961Z,100123.88
2024-04-24T07:47:31.726Z,100116.09
2024-04-24T07:49:58.573Z,100115.88
2024-04-24T07:52:25.171Z,100114.13
2024-04-24T07:55:08.793Z,100108.25
2024-04-24T07:57:35.593Z,100094.19
2024-04-24T08:00:02.088Z,100106.44
2024-04-24T08:02:29.886Z,100091.72
2024-04-24T08:04:56.857Z,100076.56
2024-04-24T08:07:23.511Z,100082.53
2024-04-24T08:09:50.303Z,100095.59
2024-04-24T08:12:17.042Z,100112.91
2024-04-24T08:14:43.786Z,100082.06
2024-04-24T08:17:10.409Z,100091.06
2024-04-24T08:19:37.138Z,100103.53
2024-04-24T08:22:03.792Z,100106.06
2024-04-24T08:24:30.446Z,100108.53
2024-04-24T08:26:57.716Z,100106.75
2024-04-24T08:29:25.347Z,100086.47
2024-04-24T08:31:52.867Z,100094.00
2024-04-24T08:34:19.777Z,100103.75
2024-04-24T08:36:46.539Z,100103.38
2024-04-24T08:39:16.035Z,100112.97
2024-04-24T08:41:45.760Z,100096.25
2024-04-24T08:44:13.703Z,100094.28
2024-04-24T08:46:41.088Z,100081.78
2024-04-24T08:49:07.988Z,100108.88
2024-04-24T08:51:37.975Z,100103.41
2024-04-24T08:54:06.172Z,100098.78
2024-04-24T08:56:38.555Z,100101.25
2024-04-24T08:59:12.223Z,100082.66
2024-04-24T09:01:41.242Z,100086.66
2024-04-24T09:04:09.409Z,100099.91
2024-04-24T09:06:38.338Z,100075.44
2024-04-24T09:09:06.033Z,100093.06
2024-04-24T09:11:33.557Z,100095.63
2024-04-24T09:14:00.552Z,100065.81
2024-04-24T09:16:27.664Z,100091.34
2024-04-24T09:19:05.503Z,100088.94
2024-04-24T09:21:33.157Z,100094.78
2024-04-24T09:24:00.400Z,100097.34
2024-04-24T09:26:27.963Z,100098.22
2024-04-24T09:28:55.235Z,100102.59
2024-04-24T09:31:23.622Z,100093.41
2024-04-24T09:33:51.320Z,100093.53
2024-04-24T09:36:18.086Z,100097.94
2024-04-24T09:38:46.370Z,100084.63
2024-04-24T09:41:13.166Z,100081.75
2024-04-24T09:43:39.870Z,100097.03
2024-04-24T09:46:06.543Z,100086.34
2024-04-24T09:48:33.240Z,100093.28
2024-04-24T09:51:00.242Z,100097.91
2024-04-24T09:53:26.966Z,100095.25
2024-04-24T09:56:03.268Z,100091.50
2024-04-24T09:58:35.221Z,100092.13
2024-04-24T10:01:08.257Z,100088.13
2024-04-24T10:03:36.824Z,100080.06
2024-04-24T10:06:06.558Z,100085.19
2024-04-24T10:08:34.758Z,100059.16
2024-04-24T10:11:08.927Z,100055.06
2024-04-24T10:13:41.409Z,100065.50
2024-04-24T10:16:08.643Z,100065.25
2024-04-24T10:18:36.789Z,100065.97
2024-04-24T10:21:10.416Z,100058.47
2024-04-24T10:23:41.210Z,100060.13
2024-04-24T10:26:09.887Z,100063.56
2024-04-24T10:28:38.210Z,100055.28
2024-04-24T10:31:04.892Z,100072.53
2024-04-24T10:33:32.472Z,100055.53
2024-04-24T10:36:01.273Z,100073.41
2024-04-24T10:38:33.109Z,100068.06
2024-04-24T10:41:00.017Z,100037.66
2024-04-24T10:43:34.789Z,100065.75
2024-04-24T10:46:04.089Z,100062.34
2024-04-24T10:49:00.127Z,100060.38
2024-04-24T10:51:30.349Z,100057.97
2024-04-24T10:53:59.877Z,100056.69
2024-04-24T10:56:36.266Z,100037.53
2024-04-24T10:59:06.592Z,100031.06
2024-04-24T11:01:46.245Z,100025.28
2024-04-24T11:04:17.922Z,100041.28
2024-04-24T11:06:45.717Z,100029.03
2024-04-24T11:09:12.530Z,100023.94
2024-04-24T11:11:39.537Z,100021.25
2024-04-24T11:14:41.423Z,100047.28
2024-04-24T11:17:08.411Z,100030.50
2024-04-24T11:19:35.158Z,100026.81
2024-04-24T11:22:01.999Z,100041.78
2024-04-24T11:24:32.960Z,100012.16
2024-04-24T11:27:00.618Z,99995.84
2024-04-24T11:36:52.348Z,100011.28
2024-04-24T11:39:23.651Z,100029.88
2024-04-24T11:41:51.573Z,100018.59
2024-04-24T11:48:15.743Z,99997.78
2024-04-24T11:50:42.613Z,99968.69
2024-04-24T12:00:48.256Z,100009.81
2024-04-24T12:06:16.964Z,99978.72
2024-04-24T12:16:48.594Z,99976.19
2024-04-24T12:22:56.727Z,99975.44
2024-04-24T12:25:46.375Z,99951.47
2024-04-24T12:28:15.641Z,99975.41
2024-04-24T12:30:59.988Z,99972.16
2024-04-24T12:33:27.309Z,99956.88
2024-04-24T12:35:54.080Z,99964.63
2024-04-24T12:41:05.224Z,99960.88
2024-04-24T12:43:32.467Z,99964.66
2024-04-24T12:45:59.374Z,99959.56
2024-04-24T12:48:26.280Z,99987.97
2024-04-24T12:55:21.466Z,99992.34
2024-04-24T13:01:45.805Z,99956.50
2024-04-24T13:14:38.403Z,99979.09
2024-04-24T13:21:02.327Z,99978.13
2024-04-24T13:23:29.412Z,99952.88
2024-04-24T13:26:36.685Z,99931.25
2024-04-24T13:29:03.615Z,99929.28
2024-04-24T13:31:50.213Z,99926.25
2024-04-24T13:38:07.072Z,99947.63
2024-04-24T13:43:29.657Z,99936.09
2024-04-24T13:45:56.800Z,99921.66
2024-04-24T13:48:23.674Z,99925.81
2024-04-24T13:51:32.491Z,99906.50
2024-04-24T13:57:42.882Z,99921.56
2024-04-24T14:00:51.878Z,99939.72
2024-04-24T14:03:24.748Z,99930.97
2024-04-24T14:09:35.079Z,99915.91
2024-04-24T14:12:23.533Z,99913.63
2024-04-24T14:19:06.431Z,99918.47
2024-04-24T14:21:34.905Z,99921.78
2024-04-24T14:24:02.281Z,99890.09
2024-04-24T14:26:29.164Z,99890.31
2024-04-24T14:28:59.865Z,99897.94
2024-04-24T14:59:21.828Z,99862.91
2024-04-24T15:04:55.643Z,99853.53
2024-04-24T15:07:27.566Z,99851.00
2024-04-24T15:10:07.722Z,99851.72
2024-04-24T15:12:57.689Z,99852.81
2024-04-24T15:15:28.125Z,99851.66
2024-04-24T15:27:06.520Z,99852.09
2024-04-24T15:30:12.043Z,99842.50
2024-04-24T15:32:42.161Z,99852.09
2024-04-24T15:35:16.245Z,99847.34
2024-04-24T15:37:53.900Z,99826.59
2024-04-24T15:40:30.068Z,99841.03
2024-04-24T15:43:04.252Z,99836.06
2024-04-24T15:48:24.318Z,99828.53
2024-04-24T15:51:02.875Z,99850.75
2024-04-24T15:53:52.877Z,99850.88
2024-04-24T15:56:30.807Z,99865.19
2024-04-24T16:01:50.508Z,99860.94
2024-04-24T16:05:06.644Z,99871.50
2024-04-24T16:07:33.618Z,99873.19
2024-04-24T16:10:00.650Z,99876.91
2024-04-24T16:12:36.415Z,99869.88
2024-04-24T16:15:06.543Z,99880.97
2024-04-24T16:17:34.565Z,99872.19
2024-04-24T16:23:03.574Z,99887.16
2024-04-24T16:25:51.452Z,99882.41
2024-04-24T16:36:22.344Z,99916.66
2024-04-24T16:39:35.312Z,99876.44
2024-04-24T16:42:08.131Z,99894.94
2024-04-24T16:45:23.696Z,99907.13
2024-04-24T16:48:33.109Z,99911.38
2024-04-24T16:51:10.880Z,99873.66
2024-04-24T16:53:37.593Z,99866.25
2024-04-24T16:56:31.273Z,99902.91
2024-04-24T16:59:09.899Z,99862.88
2024-04-24T17:01:44.556Z,99878.59
2024-04-24T17:04:56.493Z,99861.88
2024-04-24T17:07:36.156Z,99871.97
2024-04-24T17:14:44.342Z,99900.94
2024-04-24T17:17:29.954Z,99854.78
2024-04-24T17:19:56.743Z,99880.19
2024-04-24T17:25:15.851Z,99874.09
2024-04-24T17:27:45.120Z,99869.97
2024-04-24T17:30:19.075Z,99861.03
2024-04-24T17:32:49.221Z,99860.69
2024-04-24T17:35:25.505Z,99860.41
2024-04-24T17:37:52.231Z,99889.13
2024-04-24T17:40:18.882Z,99901.00
2024-04-24T17:42:46.136Z,99870.09
2024-04-24T17:45:13.100Z,99886.50
2024-04-24T18:21:41.392Z,99874.47
2024-04-24T18:24:37.270Z,99870.84
2024-04-24T18:27:59.595Z,99914.06
2024-04-24T18:34:29.793Z,99882.00
2024-04-24T18:37:05.436Z,99890.75
2024-04-24T18:42:50.679Z,99895.84
2024-04-24T18:45:33.948Z,99895.84
2024-04-24T18:48:00.871Z,99907.28
2024-04-24T18:50:34.997Z,99892.44
2024-04-24T18:53:04.625Z,99914.38
2024-04-24T18:55:31.479Z,99916.31
2024-04-24T18:57:58.217Z,99908.44
2024-04-24T19:00:24.799Z,99941.63
2024-04-24T19:02:51.747Z,99901.91
2024-04-24T19:05:20.690Z,99931.88
2024-04-24T19:07:47.522Z,99925.50
2024-04-24T19:10:15.516Z,99939.28
2024-04-24T19:12:42.287Z,99918.69
2024-04-24T19:15:09.549Z,99936.03
2024-04-24T19:17:36.450Z,99931.38
2024-04-24T19:20:03.468Z,99931.56
2024-04-24T19:22:30.828Z,99915.91
2024-04-24T19:24:57.512Z,99903.16
2024-04-24T19:27:30.716Z,99936.00
2024-04-24T19:30:06.596Z,99922.97
2024-04-24T19:33:10.886Z,99904.03
2024-04-24T19:35:38.000Z,99915.31
2024-04-24T19:38:07.739Z,99890.44
2024-04-24T19:41:28.468Z,99931.69
2024-04-24T19:44:08.436Z,99916.19
2024-04-24T19:53:22.238Z,99925.09
2024-04-24T19:55:52.470Z,99894.91
2024-04-24T20:01:25.848Z,99926.38
2024-04-24T20:04:20.957Z,99925.75
2024-04-24T20:07:00.233Z,99888.56
2024-04-24T20:09:27.051Z,99902.69
2024-04-24T20:12:03.231Z,99911.75
2024-04-24T20:14:29.981Z,99908.44
2024-04-24T20:16:56.698Z,99926.56
2024-04-24T20:19:26.597Z,99899.31
2024-04-24T20:21:53.978Z,99912.06
2024-04-24T20:24:20.745Z,99903.59
2024-04-24T20:26:51.532Z,99923.66
2024-04-24T20:29:21.658Z,99922.63
2024-04-24T20:31:50.441Z,99917.63
2024-04-24T20:34:17.811Z,99902.63
2024-04-24T20:36:44.442Z,99918.38
2024-04-24T20:39:11.122Z,99883.25
2024-04-24T20:41:42.999Z,99940.09
2024-04-24T20:44:09.848Z,99919.03
2024-04-24T20:46:50.341Z,99893.25
2024-04-24T20:49:17.074Z,99888.25
2024-04-24T20:51:55.550Z,99930.28
2024-04-24T20:54:22.248Z,99929.22
2024-04-24T20:56:49.617Z,99893.03
2024-04-24T20:59:16.564Z,99915.84
2024-04-24T21:01:46.016Z,99913.25
2024-04-24T21:04:17.307Z,99898.34
2024-04-24T21:06:44.032Z,99897.72
2024-04-24T21:09:14.953Z,99926.91
2024-04-24T21:11:48.072Z,99914.53
2024-04-24T21:14:18.118Z,99887.28
2024-04-24T21:16:44.873Z,99886.44
2024-04-24T21:19:12.525Z,99922.00
2024-04-24T21:21:49.015Z,99887.31
2024-04-24T21:24:16.845Z,99894.53
2024-04-24T21:26:51.811Z,99904.94
2024-04-24T21:29:24.992Z,99880.25
2024-04-24T21:31:52.442Z,99869.84
2024-04-24T21:34:19.163Z,99881.09
2024-04-24T21:36:45.762Z,99911.75
2024-04-24T21:39:13.755Z,99895.72
2024-04-24T21:41:42.924Z,99876.34
2024-04-24T21:44:09.641Z,99890.88
2024-04-24T21:46:36.289Z,99898.13
2024-04-24T21:49:03.063Z,99881.31
2024-04-24T21:51:29.639Z,99900.59
2024-04-24T21:53:58.084Z,99877.03
2024-04-24T21:56:25.132Z,99871.19
2024-04-24T21:58:53.363Z,99905.59
2024-04-24T22:01:23.080Z,99891.59
2024-04-24T22:03:50.305Z,99867.03
2024-04-24T22:06:20.479Z,99881.09
2024-04-24T22:08:48.485Z,99876.84
2024-04-24T22:11:15.571Z,99881.84
2024-04-24T22:13:42.246Z,99859.53
2024-04-24T22:16:09.087Z,99856.56
2024-04-24T22:18:36.487Z,99881.03
2024-04-24T22:21:03.360Z,99860.81
2024-04-24T22:23:30.230Z,99890.19
2024-04-24T22:25:56.929Z,99861.97
2024-04-24T22:28:23.541Z,99891.66
2024-04-24T22:30:50.179Z,99868.28
2024-04-24T22:33:17.053Z,99875.88
2024-04-24T22:35:43.811Z,99869.69
2024-04-24T22:38:12.571Z,99883.88
2024-04-24T22:40:39.775Z,99860.06
2024-04-24T22:43:09.079Z,99864.41
2024-04-24T22:45:35.774Z,99876.25
2024-04-24T22:51:26.292Z,99860.56
2024-04-24T22:53:52.919Z,99887.25
2024-04-24T22:56:19.644Z,99867.97
2024-04-24T22:58:47.923Z,99874.16
2024-04-24T23:01:15.208Z,99845.91
2024-04-24T23:03:41.901Z,99855.47
2024-04-24T23:06:08.409Z,99868.25
2024-04-24T23:08:35.159Z,99829.69
2024-04-24T23:11:01.959Z,99844.19
2024-04-24T23:13:28.610Z,99853.16
2024-04-24T23:15:55.216Z,99856.25
2024-04-24T23:18:21.994Z,99825.16
2024-04-24T23:20:48.709Z,99826.63
2024-04-24T23:23:15.334Z,99845.50
2024-04-24T23:25:42.546Z,99850.25
2024-04-24T23:28:09.228Z,99835.47
2024-04-24T23:30:35.738Z,99849.59
2024-04-24T23:33:02.447Z,99827.81
2024-04-24T23:35:29.179Z,99835.44
2024-04-24T23:37:55.859Z,99841.50
2024-04-24T23:40:22.445Z,99811.44
2024-04-24T23:42:49.133Z,99817.56
2024-04-24T23:45:17.519Z,99848.56
2024-04-24T23:47:44.357Z,99807.34
2024-04-24T23:50:11.099Z,99818.72
2024-04-24T23:52:37.610Z,99823.25
2024-04-24T23:55:04.493Z,99802.03
2024-04-24T23:57:31.115Z,99822.09
2024-04-24T23:59:57.729Z,99810.44
